createdAt,value
2018-03-25T00:00:05.761Z,34.60
2018-03-25T00:01:05.778Z,34.10
2018-03-25T00:02:05.786Z,33.50
2018-03-25T00:03:05.796Z,32.30
2018-03-25T00:04:05.817Z,33.40
2018-03-25T00:05:05.814Z,33.00
2018-03-25T00:06:05.821Z,33.90
2018-03-25T00:07:05.844Z,33.10
2018-03-25T00:08:05.852Z,33.60
2018-03-25T00:09:05.849Z,33.90
2018-03-25T00:10:05.858Z,36.10
2018-03-25T00:11:05.878Z,37.90
2018-03-25T00:12:05.888Z,36.60
2018-03-25T00:13:05.897Z,34.20
2018-03-25T00:14:05.905Z,33.30
2018-03-25T00:15:06.037Z,33.70
2018-03-25T00:16:05.924Z,33.80
2018-03-25T00:17:05.944Z,34.90
2018-03-25T00:18:05.941Z,34.60
2018-03-25T00:19:05.949Z,35.50
2018-03-25T00:20:05.960Z,35.40
2018-03-25T00:21:05.969Z,34.70
2018-03-25T00:22:05.988Z,34.50
2018-03-25T00:23:06.003Z,34.00
2018-03-25T00:24:06.006Z,36.20
2018-03-25T00:25:06.016Z,35.80
2018-03-25T00:26:06.037Z,37.30
2018-03-25T00:27:06.034Z,37.00
2018-03-25T00:28:06.042Z,37.90
2018-03-25T00:29:06.051Z,38.00
2018-03-25T00:30:06.059Z,37.00
2018-03-25T00:31:06.069Z,34.80
2018-03-25T00:32:06.077Z,36.80
2018-03-25T00:33:06.098Z,36.30
2018-03-25T00:34:06.108Z,35.50
2018-03-25T00:35:06.129Z,33.80
2018-03-25T00:36:06.126Z,35.50
2018-03-25T00:37:06.133Z,35.50
2018-03-25T00:38:06.143Z,35.30
2018-03-25T00:39:06.152Z,34.80
2018-03-25T00:40:06.161Z,35.10
2018-03-25T00:41:06.169Z,35.60
2018-03-25T00:42:06.178Z,36.90
2018-03-25T00:43:06.188Z,36.60
2018-03-25T00:44:06.197Z,37.70
2018-03-25T00:45:06.205Z,36.60
2018-03-25T00:46:06.215Z,35.00
2018-03-25T00:47:06.224Z,39.60
2018-03-25T00:48:06.244Z,36.70
2018-03-25T00:49:06.254Z,37.70
2018-03-25T00:50:06.262Z,39.30
2018-03-25T00:51:06.272Z,36.70
2018-03-25T00:52:06.280Z,38.40
2018-03-25T00:53:06.289Z,38.10
2018-03-25T00:54:06.298Z,38.90
2018-03-25T00:55:06.308Z,39.40
2018-03-25T00:56:06.315Z,40.50
2018-03-25T00:57:06.330Z,40.40
2018-03-25T00:58:06.344Z,37.40
2018-03-25T00:59:06.343Z,38.90
2018-03-25T01:00:06.350Z,40.30
2018-03-25T01:01:06.372Z,41.40
2018-03-25T01:02:06.370Z,45.80
2018-03-25T01:03:06.379Z,46.30
2018-03-25T01:04:06.400Z,43.60
2018-03-25T01:05:06.408Z,40.10
2018-03-25T01:06:06.417Z,40.00
2018-03-25T01:07:06.464Z,40.10
2018-03-25T01:08:06.439Z,41.70
2018-03-25T01:09:06.443Z,43.00
2018-03-25T01:10:06.453Z,41.30
2018-03-25T01:11:06.461Z,40.80
2018-03-25T01:12:06.471Z,40.90
2018-03-25T01:13:06.480Z,41.20
2018-03-25T01:14:06.491Z,40.00
2018-03-25T01:15:06.496Z,42.30
2018-03-25T01:16:06.507Z,41.70
2018-03-25T01:17:06.515Z,40.70
2018-03-25T01:18:06.523Z,41.30
2018-03-25T01:19:06.532Z,40.60
2018-03-25T01:20:06.553Z,42.60
2018-03-25T01:21:06.551Z,44.00
2018-03-25T01:22:06.560Z,42.60
2018-03-25T01:23:06.569Z,42.50
2018-03-25T01:24:06.581Z,41.90
2018-03-25T01:25:06.598Z,41.60
2018-03-25T01:26:06.607Z,42.50
2018-03-25T01:27:06.616Z,41.60
2018-03-25T01:28:06.625Z,41.80
2018-03-25T01:29:06.635Z,42.20
2018-03-25T01:30:06.643Z,43.00
2018-03-25T01:31:06.652Z,42.00
2018-03-25T01:32:06.660Z,41.30
2018-03-25T01:33:06.673Z,41.50
2018-03-25T01:34:06.677Z,44.10
2018-03-25T01:35:06.689Z,43.00
2018-03-25T01:36:06.696Z,42.10
2018-03-25T01:37:06.706Z,41.70
2018-03-25T01:38:06.716Z,41.60
2018-03-25T01:39:06.723Z,41.30
2018-03-25T01:40:06.732Z,42.50
2018-03-25T01:41:06.741Z,44.80
2018-03-25T01:42:06.749Z,43.00
2018-03-25T01:43:06.764Z,42.70
2018-03-25T01:44:06.767Z,43.80
2018-03-25T01:45:06.777Z,45.20
2018-03-25T01:46:06.785Z,44.90
2018-03-25T01:47:06.795Z,44.50
2018-03-25T01:48:06.802Z,44.80
2018-03-25T01:49:06.812Z,44.70
2018-03-25T01:50:06.834Z,43.50
2018-03-25T01:51:06.835Z,45.40
2018-03-25T01:52:07.125Z,42.90
2018-03-25T01:53:06.848Z,41.70
2018-03-25T01:54:06.869Z,42.00
2018-03-25T01:55:06.866Z,42.10
2018-03-25T01:56:06.890Z,45.50
2018-03-25T01:57:06.895Z,45.10
2018-03-25T01:58:06.904Z,44.20
2018-03-25T01:59:06.926Z,45.60
2018-03-25T02:00:06.923Z,47.00
2018-03-25T02:01:06.931Z,44.60
2018-03-25T02:02:06.940Z,44.70
2018-03-25T02:03:06.951Z,45.20
2018-03-25T02:04:06.958Z,44.20
2018-03-25T02:05:06.966Z,46.40
2018-03-25T02:06:06.976Z,43.80
2018-03-25T02:07:06.984Z,44.50
2018-03-25T02:08:06.994Z,46.10
2018-03-25T02:09:07.002Z,45.60
2018-03-25T02:10:07.017Z,45.40
2018-03-25T02:11:07.020Z,48.10
2018-03-25T02:12:07.029Z,46.20
2018-03-25T02:13:07.050Z,46.50
2018-03-25T02:14:07.048Z,46.80
2018-03-25T02:15:07.055Z,45.40
2018-03-25T02:16:07.064Z,46.30
2018-03-25T02:17:07.072Z,46.20
2018-03-25T02:18:07.083Z,47.40
2018-03-25T02:19:07.093Z,46.20
2018-03-25T02:20:07.101Z,46.00
2018-03-25T02:21:07.110Z,48.30
2018-03-25T02:22:07.118Z,48.60
2018-03-25T02:23:07.127Z,49.20
2018-03-25T02:24:07.136Z,50.20
2018-03-25T02:25:07.144Z,48.10
2018-03-25T02:26:07.154Z,48.90
2018-03-25T02:27:07.162Z,46.40
2018-03-25T02:28:07.177Z,48.10
2018-03-25T02:29:07.181Z,47.80
2018-03-25T02:30:07.203Z,47.00
2018-03-25T02:31:07.199Z,49.30
2018-03-25T02:32:07.208Z,47.40
2018-03-25T02:33:07.216Z,49.40
2018-03-25T02:34:07.244Z,48.50
2018-03-25T02:35:07.234Z,51.20
2018-03-25T02:36:07.254Z,47.50
2018-03-25T02:37:07.269Z,50.00
2018-03-25T02:38:07.272Z,46.00
2018-03-25T02:39:07.298Z,48.10
2018-03-25T02:40:07.293Z,48.10
2018-03-25T02:41:07.298Z,50.30
2018-03-25T02:42:07.309Z,47.60
2018-03-25T02:43:07.318Z,48.70
2018-03-25T02:44:07.325Z,47.60
2018-03-25T02:45:07.335Z,50.00
2018-03-25T02:46:07.344Z,51.40
2018-03-25T02:47:07.352Z,50.20
2018-03-25T02:48:07.361Z,48.30
2018-03-25T02:49:07.370Z,49.70
2018-03-25T02:50:07.380Z,49.30
2018-03-25T02:51:07.388Z,48.60
2018-03-25T02:52:07.414Z,51.10
2018-03-25T02:53:07.409Z,48.30
2018-03-25T02:54:07.456Z,48.70
2018-03-25T02:55:07.424Z,48.00
2018-03-25T02:56:07.433Z,49.80
2018-03-25T02:57:07.445Z,53.30
2018-03-25T02:58:07.452Z,47.20
2018-03-25T02:59:07.460Z,47.20
2018-03-25T03:00:07.469Z,49.30
2018-03-25T03:01:07.477Z,51.70
2018-03-25T03:02:07.494Z,47.60
2018-03-25T03:03:07.496Z,49.10
2018-03-25T03:04:07.503Z,48.10
2018-03-25T03:05:07.514Z,50.20
2018-03-25T03:06:07.521Z,51.50
2018-03-25T03:07:07.534Z,52.70
2018-03-25T03:08:07.538Z,53.10
2018-03-25T03:09:07.548Z,50.60
2018-03-25T03:10:07.557Z,51.20
2018-03-25T03:11:07.575Z,51.90
2018-03-25T03:12:07.579Z,51.80
2018-03-25T03:13:07.584Z,52.00
2018-03-25T03:14:07.595Z,52.10
2018-03-25T03:15:07.602Z,52.70
2018-03-25T03:16:07.610Z,51.20
2018-03-25T03:17:07.620Z,54.80
2018-03-25T03:18:07.628Z,52.90
2018-03-25T03:19:07.638Z,49.20
2018-03-25T03:20:07.663Z,52.60
2018-03-25T03:21:07.655Z,50.00
2018-03-25T03:22:07.663Z,51.30
2018-03-25T03:23:07.674Z,48.70
2018-03-25T03:24:07.696Z,56.20
2018-03-25T03:25:07.691Z,52.60
2018-03-25T03:26:07.738Z,50.10
2018-03-25T03:27:07.708Z,51.90
2018-03-25T03:28:07.716Z,51.70
2018-03-25T03:29:07.728Z,54.00
2018-03-25T03:30:07.736Z,52.20
2018-03-25T03:31:07.743Z,57.00
2018-03-25T03:32:07.752Z,53.80
2018-03-25T03:33:07.766Z,53.30
2018-03-25T03:34:07.782Z,54.30
2018-03-25T03:35:07.780Z,56.20
2018-03-25T03:36:07.788Z,53.80
2018-03-25T03:37:07.798Z,53.10
2018-03-25T03:38:07.805Z,53.10
2018-03-25T03:39:07.816Z,54.70
2018-03-25T03:40:07.823Z,56.30
2018-03-25T03:41:07.832Z,55.40
2018-03-25T03:42:07.841Z,55.90
2018-03-25T03:43:07.850Z,55.10
2018-03-25T03:44:07.859Z,51.80
2018-03-25T03:45:07.870Z,56.60
2018-03-25T03:46:07.877Z,56.10
2018-03-25T03:47:07.886Z,57.90
2018-03-25T03:48:07.894Z,56.60
2018-03-25T03:49:07.905Z,56.20
2018-03-25T03:50:07.915Z,53.90
2018-03-25T03:51:07.933Z,54.00
2018-03-25T03:52:07.930Z,55.60
2018-03-25T03:53:07.940Z,53.60
2018-03-25T03:54:07.948Z,53.70
2018-03-25T03:55:07.957Z,53.40
2018-03-25T03:56:07.966Z,57.40
2018-03-25T03:57:07.975Z,57.10
2018-03-25T03:58:07.983Z,56.40
2018-03-25T03:59:07.993Z,56.10
2018-03-25T04:00:08.001Z,57.10
2018-03-25T04:01:08.011Z,54.90
2018-03-25T04:02:08.020Z,56.40
2018-03-25T04:03:08.029Z,55.40
2018-03-25T04:04:08.036Z,53.80
2018-03-25T04:05:08.055Z,56.00
2018-03-25T04:06:08.055Z,55.30
2018-03-25T04:07:08.064Z,52.80
2018-03-25T04:08:08.072Z,54.40
2018-03-25T04:09:08.121Z,52.90
2018-03-25T04:10:08.090Z,55.80
2018-03-25T04:11:08.099Z,53.30
2018-03-25T04:12:08.109Z,54.10
2018-03-25T04:13:08.117Z,53.20
2018-03-25T04:14:08.131Z,53.40
2018-03-25T04:15:08.135Z,52.00
2018-03-25T04:16:08.143Z,54.00
2018-03-25T04:17:08.152Z,53.10
2018-03-25T04:18:08.161Z,51.30
2018-03-25T04:19:08.170Z,53.10
2018-03-25T04:20:08.178Z,54.00
2018-03-25T04:21:08.187Z,53.20
2018-03-25T04:22:08.209Z,53.80
2018-03-25T04:23:08.206Z,54.10
2018-03-25T04:24:08.218Z,56.60
2018-03-25T04:25:08.223Z,53.40
2018-03-25T04:26:08.233Z,51.60
2018-03-25T04:27:08.242Z,50.30
2018-03-25T04:28:08.250Z,54.70
2018-03-25T04:29:08.260Z,52.10
2018-03-25T04:30:08.271Z,50.30
2018-03-25T04:31:08.277Z,50.90
2018-03-25T04:32:08.298Z,55.70
2018-03-25T04:33:08.298Z,51.70
2018-03-25T04:34:08.306Z,54.50
2018-03-25T04:35:08.312Z,51.80
2018-03-25T04:36:08.334Z,54.90
2018-03-25T04:37:08.331Z,51.60
2018-03-25T04:38:08.339Z,50.90
2018-03-25T04:39:08.349Z,53.40
2018-03-25T04:40:08.378Z,52.10
2018-03-25T04:41:08.366Z,54.40
2018-03-25T04:42:08.375Z,51.40
2018-03-25T04:43:08.383Z,52.30
2018-03-25T04:44:08.391Z,50.80
2018-03-25T04:45:08.401Z,51.00
2018-03-25T04:46:08.410Z,53.30
2018-03-25T04:47:08.419Z,55.40
2018-03-25T04:48:08.428Z,55.90
2018-03-25T04:49:08.437Z,55.40
2018-03-25T04:50:08.447Z,51.90
2018-03-25T04:51:08.457Z,53.90
2018-03-25T04:52:08.462Z,52.20
2018-03-25T04:53:08.473Z,51.30
2018-03-25T04:54:08.481Z,53.70
2018-03-25T04:55:08.490Z,57.40
2018-03-25T04:56:08.510Z,51.00
2018-03-25T04:57:08.509Z,52.90
2018-03-25T04:58:08.516Z,52.60
2018-03-25T04:59:08.525Z,53.70
2018-03-25T05:00:08.534Z,52.40
2018-03-25T05:01:08.545Z,52.20
2018-03-25T05:02:08.552Z,50.30
2018-03-25T05:03:08.561Z,48.60
2018-03-25T05:04:08.570Z,52.70
2018-03-25T05:05:08.580Z,49.20
2018-03-25T05:06:08.587Z,54.80
2018-03-25T05:07:08.599Z,50.50
2018-03-25T05:08:08.605Z,52.20
2018-03-25T05:09:08.614Z,49.70
2018-03-25T05:10:08.624Z,50.90
2018-03-25T05:11:08.632Z,51.50
2018-03-25T05:12:08.640Z,48.20
2018-03-25T05:13:08.651Z,51.70
2018-03-25T05:14:08.659Z,52.00
2018-03-25T05:15:08.668Z,49.90
2018-03-25T05:16:08.676Z,51.90
2018-03-25T05:17:08.686Z,50.80
2018-03-25T05:18:08.694Z,49.00
2018-03-25T05:19:08.704Z,52.40
2018-03-25T05:20:08.714Z,50.90
2018-03-25T05:21:08.721Z,52.40
2018-03-25T05:22:08.730Z,48.70
2018-03-25T05:23:08.740Z,52.40
2018-03-25T05:24:08.747Z,51.50
2018-03-25T05:25:08.757Z,50.20
2018-03-25T05:26:08.765Z,51.80
2018-03-25T05:27:08.775Z,51.60
2018-03-25T05:28:08.783Z,50.80
2018-03-25T05:29:08.793Z,51.40
2018-03-25T05:30:08.801Z,52.00
2018-03-25T05:31:08.810Z,49.80
2018-03-25T05:32:08.818Z,47.20
2018-03-25T05:33:08.828Z,52.40
2018-03-25T05:34:08.895Z,50.40
2018-03-25T05:35:08.845Z,52.60
2018-03-25T05:36:08.855Z,51.20
2018-03-25T05:37:08.865Z,49.20
2018-03-25T05:38:08.873Z,50.10
2018-03-25T05:39:08.884Z,49.80
2018-03-25T05:40:08.891Z,47.30
2018-03-25T05:41:08.911Z,49.10
2018-03-25T05:42:08.923Z,50.30
2018-03-25T05:43:08.942Z,48.70
2018-03-25T05:44:08.939Z,48.70
2018-03-25T05:45:08.959Z,47.70
2018-03-25T05:46:08.956Z,48.00
2018-03-25T05:47:08.977Z,47.40
2018-03-25T05:48:08.974Z,46.40
2018-03-25T05:49:08.982Z,47.60
2018-03-25T05:50:09.024Z,46.20
2018-03-25T05:51:09.000Z,47.30
2018-03-25T05:52:09.009Z,45.90
2018-03-25T05:53:09.018Z,46.60
2018-03-25T05:54:09.027Z,46.80
2018-03-25T05:55:09.035Z,44.60
2018-03-25T05:56:09.045Z,45.20
2018-03-25T05:57:09.055Z,47.00
2018-03-25T05:58:09.069Z,44.40
2018-03-25T05:59:09.070Z,46.50
2018-03-25T06:00:09.081Z,46.70
2018-03-25T06:01:09.102Z,43.60
2018-03-25T06:02:09.110Z,44.50
2018-03-25T06:03:09.122Z,45.30
2018-03-25T06:04:09.128Z,45.40
2018-03-25T06:05:09.137Z,44.50
2018-03-25T06:06:09.146Z,43.60
2018-03-25T06:07:09.202Z,44.40
2018-03-25T06:08:09.165Z,44.30
2018-03-25T06:09:09.173Z,45.10
2018-03-25T06:10:09.180Z,44.80
2018-03-25T06:11:09.197Z,45.80
2018-03-25T06:12:09.200Z,43.70
2018-03-25T06:13:09.220Z,43.30
2018-03-25T06:14:09.229Z,42.50
2018-03-25T06:15:09.239Z,41.90
2018-03-25T06:16:09.248Z,40.90
2018-03-25T06:17:09.256Z,43.10
2018-03-25T06:18:09.265Z,40.50
2018-03-25T06:19:09.273Z,41.90
2018-03-25T06:20:09.283Z,41.10
2018-03-25T06:21:09.298Z,41.60
2018-03-25T06:22:09.312Z,40.50
2018-03-25T06:23:09.323Z,42.40
2018-03-25T06:24:09.331Z,40.00
2018-03-25T06:25:09.342Z,41.40
2018-03-25T06:26:09.348Z,39.20
2018-03-25T06:27:09.358Z,39.70
2018-03-25T06:28:09.365Z,41.90
2018-03-25T06:29:09.388Z,39.50
2018-03-25T06:30:09.397Z,40.70
2018-03-25T06:31:09.405Z,39.90
2018-03-25T06:32:09.414Z,39.70
2018-03-25T06:33:09.424Z,40.00
2018-03-25T06:34:09.433Z,41.10
2018-03-25T06:35:09.440Z,39.80
2018-03-25T06:36:09.462Z,38.70
2018-03-25T06:37:09.472Z,38.70
2018-03-25T06:38:09.480Z,36.70
2018-03-25T06:39:09.490Z,36.90
2018-03-25T06:40:09.498Z,39.50
2018-03-25T06:41:09.507Z,37.50
2018-03-25T06:42:09.531Z,36.60
2018-03-25T06:43:09.536Z,37.50
2018-03-25T06:44:09.547Z,37.80
2018-03-25T06:45:09.554Z,38.10
2018-03-25T06:46:09.564Z,36.80
2018-03-25T06:47:09.580Z,38.40
2018-03-25T06:48:09.599Z,36.10
2018-03-25T06:49:09.603Z,32.90
2018-03-25T06:50:09.625Z,34.70
2018-03-25T06:51:09.621Z,34.50
2018-03-25T06:52:09.630Z,34.50
2018-03-25T06:53:09.651Z,34.00
2018-03-25T06:54:09.669Z,35.10
2018-03-25T06:55:09.669Z,34.10
2018-03-25T06:56:09.677Z,36.50
2018-03-25T06:57:09.699Z,34.70
2018-03-25T06:58:09.709Z,34.80
2018-03-25T06:59:09.720Z,32.80
2018-03-25T07:00:09.725Z,34.60
2018-03-25T07:01:09.736Z,35.50
2018-03-25T07:02:09.756Z,33.00
2018-03-25T07:03:09.778Z,33.80
2018-03-25T07:04:09.776Z,33.80
2018-03-25T07:05:09.783Z,32.30
2018-03-25T07:06:09.803Z,32.50
2018-03-25T07:07:09.814Z,32.20
2018-03-25T07:08:09.844Z,31.20
2018-03-25T07:09:09.831Z,32.00
2018-03-25T07:10:09.852Z,31.70
2018-03-25T07:11:09.860Z,30.90
2018-03-25T07:12:09.870Z,28.40
2018-03-25T07:13:09.891Z,29.80
2018-03-25T07:14:09.900Z,28.10
2018-03-25T07:15:09.909Z,29.30
2018-03-25T07:16:09.918Z,29.10
2018-03-25T07:17:09.940Z,27.80
2018-03-25T07:18:09.949Z,28.70
2018-03-25T07:19:09.957Z,28.50
2018-03-25T07:20:09.966Z,27.80
2018-03-25T07:21:09.991Z,27.00
2018-03-25T07:22:09.995Z,27.90
2018-03-25T07:23:10.005Z,27.80
2018-03-25T07:24:10.026Z,26.80
2018-03-25T07:25:10.037Z,27.60
2018-03-25T07:26:10.044Z,27.10
2018-03-25T07:27:10.067Z,27.20
2018-03-25T07:28:10.075Z,25.20
2018-03-25T07:29:10.084Z,25.90
2018-03-25T07:30:10.129Z,26.40
2018-03-25T07:31:10.113Z,26.30
2018-03-25T07:32:10.124Z,25.70
2018-03-25T07:33:10.144Z,25.60
2018-03-25T07:34:10.153Z,25.70
2018-03-25T07:35:10.161Z,25.60
2018-03-25T07:36:10.192Z,25.60
2018-03-25T07:37:10.191Z,26.50
2018-03-25T07:38:10.201Z,25.70
2018-03-25T07:39:10.223Z,26.30
2018-03-25T07:40:10.231Z,26.40
2018-03-25T07:41:10.261Z,26.70
2018-03-25T07:42:10.262Z,25.30
2018-03-25T07:43:10.272Z,26.40
2018-03-25T07:44:10.291Z,27.30
2018-03-25T07:45:10.301Z,26.40
2018-03-25T07:46:10.322Z,25.40
2018-03-25T07:47:10.331Z,25.90
2018-03-25T07:48:10.340Z,26.90
2018-03-25T07:49:10.361Z,25.70
2018-03-25T07:50:10.416Z,25.60
2018-03-25T07:51:10.391Z,26.70
2018-03-25T07:52:10.401Z,26.90
2018-03-25T07:53:10.421Z,27.20
2018-03-25T07:54:10.430Z,26.90
2018-03-25T07:55:10.440Z,26.80
2018-03-25T07:56:10.461Z,25.10
2018-03-25T07:57:10.469Z,28.10
2018-03-25T07:58:10.490Z,27.20
2018-03-25T07:59:10.500Z,27.70
2018-03-25T08:00:10.521Z,26.90
2018-03-25T08:01:10.530Z,28.00
2018-03-25T08:02:10.564Z,26.60
2018-03-25T08:03:10.561Z,27.10
2018-03-25T08:04:10.571Z,27.20
2018-03-25T08:05:10.590Z,26.80
2018-03-25T08:06:10.600Z,27.10
2018-03-25T08:07:10.622Z,25.70
2018-03-25T08:08:10.629Z,26.00
2018-03-25T08:09:10.659Z,25.90
2018-03-25T08:10:10.660Z,26.10
2018-03-25T08:11:10.681Z,26.70
2018-03-25T08:12:10.704Z,26.30
2018-03-25T08:13:10.700Z,26.40
2018-03-25T08:14:10.721Z,26.20
2018-03-25T08:15:10.732Z,26.50
2018-03-25T08:16:10.799Z,26.50
2018-03-25T08:17:10.759Z,26.30
2018-03-25T08:18:10.781Z,26.50
2018-03-25T08:19:10.789Z,25.40
2018-03-25T08:20:10.810Z,25.00
2018-03-25T08:21:10.821Z,24.70
2018-03-25T08:22:10.842Z,26.20
2018-03-25T08:23:10.850Z,25.90
2018-03-25T08:24:10.871Z,25.10
2018-03-25T08:25:10.883Z,26.70
2018-03-25T08:26:10.894Z,26.80
2018-03-25T08:27:10.911Z,25.30
2018-03-25T08:28:10.920Z,25.00
2018-03-25T08:29:10.942Z,25.90
2018-03-25T08:30:10.950Z,25.70
2018-03-25T08:31:10.971Z,25.60
2018-03-25T08:32:10.980Z,25.70
2018-03-25T08:33:11.003Z,25.70
2018-03-25T08:34:11.010Z,26.30
2018-03-25T08:35:11.032Z,25.50
2018-03-25T08:36:11.040Z,24.30
2018-03-25T08:37:11.063Z,25.00
2018-03-25T08:38:11.071Z,25.30
2018-03-25T08:39:11.093Z,25.00
2018-03-25T08:40:11.106Z,25.70
2018-03-25T08:41:11.124Z,24.50
2018-03-25T08:42:11.132Z,25.80
2018-03-25T08:43:11.153Z,25.00
2018-03-25T08:44:11.163Z,24.20
2018-03-25T08:45:11.184Z,25.00
2018-03-25T08:46:11.197Z,24.30
2018-03-25T08:47:11.213Z,25.50
2018-03-25T08:48:11.229Z,23.90
2018-03-25T08:49:11.245Z,24.80
2018-03-25T08:50:11.254Z,23.60
2018-03-25T08:51:11.287Z,24.80
2018-03-25T08:52:11.298Z,22.80
2018-03-25T08:53:11.307Z,23.60
2018-03-25T08:54:11.326Z,23.80
2018-03-25T08:55:11.334Z,24.80
2018-03-25T08:56:11.355Z,23.90
2018-03-25T08:57:11.365Z,23.30
2018-03-25T08:58:11.387Z,24.20
2018-03-25T08:59:11.395Z,24.30
2018-03-25T09:00:11.416Z,24.90
2018-03-25T09:01:11.427Z,23.30
2018-03-25T09:02:11.447Z,24.10
2018-03-25T09:03:11.468Z,24.30
2018-03-25T09:04:11.480Z,25.30
2018-03-25T09:05:11.498Z,24.50
2018-03-25T09:06:11.509Z,25.20
2018-03-25T09:07:11.529Z,24.60
2018-03-25T09:08:11.538Z,23.80
2018-03-25T09:09:11.571Z,25.10
2018-03-25T09:10:11.581Z,25.30
2018-03-25T09:11:11.590Z,25.10
2018-03-25T09:12:11.611Z,25.10
2018-03-25T09:13:11.620Z,25.10
2018-03-25T09:14:11.643Z,25.50
2018-03-25T09:15:11.662Z,25.20
2018-03-25T09:16:11.671Z,24.80
2018-03-25T09:17:11.695Z,25.10
2018-03-25T09:18:11.701Z,25.10
2018-03-25T09:19:11.728Z,24.90
2018-03-25T09:20:11.733Z,24.90
2018-03-25T09:21:11.754Z,26.40
2018-03-25T09:22:11.775Z,24.80
2018-03-25T09:23:11.785Z,24.50
2018-03-25T09:24:11.805Z,25.40
2018-03-25T09:25:11.815Z,24.70
2018-03-25T09:26:11.835Z,24.60
2018-03-25T09:27:11.856Z,26.00
2018-03-25T09:28:11.865Z,26.00
2018-03-25T09:29:11.887Z,24.50
2018-03-25T09:30:11.897Z,25.00
2018-03-25T09:31:11.920Z,23.60
2018-03-25T09:32:11.939Z,24.70
2018-03-25T09:33:11.947Z,24.90
2018-03-25T09:34:11.968Z,24.80
2018-03-25T09:35:11.981Z,25.40
2018-03-25T09:36:12.000Z,25.10
2018-03-25T09:37:12.022Z,24.40
2018-03-25T09:38:12.029Z,24.80
2018-03-25T09:39:12.051Z,24.60
2018-03-25T09:40:12.084Z,24.70
2018-03-25T09:41:12.082Z,25.50
2018-03-25T09:42:12.103Z,26.90
2018-03-25T09:43:12.124Z,25.60
2018-03-25T09:44:12.134Z,25.80
2018-03-25T09:45:12.154Z,26.10
2018-03-25T09:46:12.175Z,25.40
2018-03-25T09:47:12.186Z,25.40
2018-03-25T09:48:12.207Z,25.80
2018-03-25T09:49:12.215Z,26.50
2018-03-25T09:50:12.236Z,25.10
2018-03-25T09:51:12.260Z,26.50
2018-03-25T09:52:12.267Z,26.40
2018-03-25T09:53:12.288Z,26.30
2018-03-25T09:54:12.309Z,26.40
2018-03-25T09:55:12.317Z,26.60
2018-03-25T09:56:12.339Z,26.30
2018-03-25T09:57:12.362Z,26.40
2018-03-25T09:58:12.369Z,26.10
2018-03-25T09:59:12.393Z,25.30
2018-03-25T10:00:12.415Z,25.50
2018-03-25T10:01:12.423Z,25.30
2018-03-25T10:02:12.442Z,26.70
2018-03-25T10:03:12.463Z,26.00
2018-03-25T10:04:12.474Z,25.50
2018-03-25T10:05:12.494Z,25.90
2018-03-25T10:06:12.516Z,25.50
2018-03-25T10:07:12.536Z,26.70
2018-03-25T10:08:12.546Z,25.50
2018-03-25T10:09:12.567Z,27.70
2018-03-25T10:10:12.592Z,26.30
2018-03-25T10:11:12.597Z,26.90
2018-03-25T10:12:12.620Z,26.60
2018-03-25T10:13:12.641Z,26.50
2018-03-25T10:14:12.653Z,27.70
2018-03-25T10:15:12.670Z,26.30
2018-03-25T10:16:12.955Z,27.60
2018-03-25T10:17:12.715Z,25.80
2018-03-25T10:18:12.722Z,26.80
2018-03-25T10:19:12.746Z,26.10
2018-03-25T10:20:12.766Z,26.60
2018-03-25T10:21:12.774Z,25.70
2018-03-25T10:22:12.795Z,24.90
2018-03-25T10:23:12.816Z,26.50
2018-03-25T10:24:12.850Z,25.90
2018-03-25T10:25:12.846Z,25.70
2018-03-25T10:26:12.869Z,26.40
2018-03-25T10:27:12.890Z,27.30
2018-03-25T10:28:12.899Z,26.50
2018-03-25T10:29:12.919Z,26.60
2018-03-25T10:30:12.941Z,27.10
2018-03-25T10:31:12.963Z,26.40
2018-03-25T10:32:12.971Z,24.50
2018-03-25T10:33:12.993Z,25.60
2018-03-25T10:34:13.014Z,25.20
2018-03-25T10:35:13.030Z,25.40
2018-03-25T10:36:13.096Z,26.50
2018-03-25T10:37:13.067Z,25.90
2018-03-25T10:38:13.100Z,26.70
2018-03-25T10:39:13.096Z,26.30
2018-03-25T10:40:13.118Z,25.60
2018-03-25T10:41:13.140Z,27.30
2018-03-25T10:42:13.161Z,27.00
2018-03-25T10:43:13.168Z,27.00
2018-03-25T10:44:13.191Z,26.80
2018-03-25T10:45:13.211Z,26.20
2018-03-25T10:46:13.233Z,27.60
2018-03-25T10:47:13.243Z,26.40
2018-03-25T10:48:13.265Z,25.80
2018-03-25T10:49:13.287Z,27.40
2018-03-25T10:50:13.306Z,26.10
2018-03-25T10:51:13.317Z,25.80
2018-03-25T10:52:13.336Z,25.40
2018-03-25T10:53:13.361Z,26.20
2018-03-25T10:54:13.384Z,25.90
2018-03-25T10:55:13.388Z,26.00
2018-03-25T10:56:13.413Z,26.70
2018-03-25T10:57:13.431Z,25.80
2018-03-25T10:58:13.441Z,26.30
2018-03-25T10:59:13.461Z,26.60
2018-03-25T11:00:13.482Z,26.80
2018-03-25T11:01:13.517Z,26.40
2018-03-25T11:02:13.526Z,26.40
2018-03-25T11:03:13.539Z,26.10
2018-03-25T11:04:13.556Z,25.50
2018-03-25T11:05:13.577Z,27.00
2018-03-25T11:06:13.603Z,26.90
2018-03-25T11:07:13.607Z,26.70
2018-03-25T11:08:13.629Z,26.90
2018-03-25T11:09:13.650Z,26.80
2018-03-25T11:10:13.671Z,27.80
2018-03-25T11:11:13.680Z,26.40
2018-03-25T11:12:13.732Z,27.70
2018-03-25T11:13:13.723Z,28.20
2018-03-25T11:14:13.745Z,27.50
2018-03-25T11:15:13.754Z,28.00
2018-03-25T11:16:13.775Z,26.60
2018-03-25T11:17:13.796Z,26.30
2018-03-25T11:18:13.817Z,28.20
2018-03-25T11:19:13.827Z,27.40
2018-03-25T11:20:13.849Z,27.80
2018-03-25T11:21:13.870Z,28.90
2018-03-25T11:22:13.893Z,28.30
2018-03-25T11:23:13.913Z,29.00
2018-03-25T11:24:13.920Z,27.30
2018-03-25T11:25:13.942Z,26.70
2018-03-25T11:26:13.963Z,26.90
2018-03-25T11:27:13.999Z,27.50
2018-03-25T11:28:14.006Z,27.80
2018-03-25T11:29:14.017Z,27.50
2018-03-25T11:30:14.037Z,26.50
2018-03-25T11:31:14.061Z,28.60
2018-03-25T11:32:14.083Z,27.10
2018-03-25T11:33:14.089Z,27.80
2018-03-25T11:34:14.109Z,26.80
2018-03-25T11:35:14.134Z,27.20
2018-03-25T11:36:14.152Z,27.00
2018-03-25T11:37:14.174Z,27.40
2018-03-25T11:38:14.184Z,27.30
2018-03-25T11:39:14.204Z,27.90
2018-03-25T11:40:14.228Z,28.90
2018-03-25T11:41:14.247Z,28.90
2018-03-25T11:42:14.273Z,26.80
2018-03-25T11:43:14.279Z,28.10
2018-03-25T11:44:14.299Z,27.00
2018-03-25T11:45:14.319Z,27.40
2018-03-25T11:46:14.341Z,28.00
2018-03-25T11:47:14.351Z,27.40
2018-03-25T11:48:14.373Z,27.40
2018-03-25T11:49:14.394Z,28.50
2018-03-25T11:50:14.415Z,29.10
2018-03-25T11:51:14.436Z,29.30
2018-03-25T11:52:14.444Z,29.90
2018-03-25T11:53:14.481Z,28.30
2018-03-25T11:54:14.487Z,29.50
2018-03-25T11:55:14.509Z,27.60
2018-03-25T11:56:14.530Z,27.60
2018-03-25T11:57:14.541Z,28.80
2018-03-25T11:58:14.562Z,29.00
2018-03-25T11:59:14.583Z,28.70
2018-03-25T12:00:14.603Z,28.40
2018-03-25T12:01:14.626Z,27.50
2018-03-25T12:02:14.633Z,29.70
2018-03-25T12:03:14.670Z,28.70
2018-03-25T12:04:14.677Z,28.30
2018-03-25T12:05:14.697Z,27.60
2018-03-25T12:06:14.720Z,27.80
2018-03-25T12:07:14.729Z,29.60
2018-03-25T12:08:14.754Z,29.60
2018-03-25T12:09:14.771Z,26.80
2018-03-25T12:10:14.793Z,27.90
2018-03-25T12:11:14.806Z,28.20
2018-03-25T12:12:14.822Z,28.30
2018-03-25T12:13:14.845Z,27.70
2018-03-25T12:14:14.865Z,28.70
2018-03-25T12:15:14.887Z,28.40
2018-03-25T12:16:14.911Z,28.90
2018-03-25T12:17:14.918Z,28.90
2018-03-25T12:18:14.939Z,27.80
2018-03-25T12:19:14.960Z,27.20
2018-03-25T12:20:14.982Z,27.90
2018-03-25T12:21:15.003Z,27.30
2018-03-25T12:22:15.024Z,28.10
2018-03-25T12:23:15.033Z,27.60
2018-03-25T12:24:15.054Z,26.30
2018-03-25T12:25:15.076Z,29.70
2018-03-25T12:26:15.109Z,29.50
2018-03-25T12:27:15.118Z,29.00
2018-03-25T12:28:15.128Z,30.20
2018-03-25T12:29:15.150Z,28.80
2018-03-25T12:30:15.171Z,28.80
2018-03-25T12:31:15.191Z,29.30
2018-03-25T12:32:15.218Z,28.00
2018-03-25T12:33:15.289Z,28.40
2018-03-25T12:34:15.256Z,28.10
2018-03-25T12:35:15.264Z,26.20
2018-03-25T12:36:15.285Z,27.00
2018-03-25T12:37:15.307Z,28.60
2018-03-25T12:38:15.329Z,28.80
2018-03-25T12:39:15.350Z,27.70
2018-03-25T12:40:15.371Z,28.00
2018-03-25T12:41:15.381Z,27.90
2018-03-25T12:42:15.402Z,27.80
2018-03-25T12:43:15.425Z,27.70
2018-03-25T12:44:15.445Z,26.50
2018-03-25T12:45:15.466Z,26.90
2018-03-25T12:46:15.488Z,28.10
2018-03-25T12:47:15.496Z,28.40
2018-03-25T12:48:15.530Z,28.30
2018-03-25T12:49:15.552Z,28.40
2018-03-25T12:50:15.560Z,26.80
2018-03-25T12:51:15.582Z,28.10
2018-03-25T12:52:15.603Z,27.80